Time;durP1;ratioP1;P1;durP2;ratioP2;P2;SDS_P1;SDS_P2;PMS_P1;PMS_P2;Temp;Humidity;BMP_temperature;BMP_pressure;BME280_temperature;BME280_humidity;BME280_pressure;Samples;Min_cycle;Max_cycle;Signal;HPM_P1;HPM_P2
2021/01/02 00:00:04;;;;;;;24.80;12.27;;;1.10;99.90;;;;;;5086418;28;20115;-79
2021/01/02 00:02:44;;;;;;;24.95;10.75;;;1.00;99.90;;;;;;5087614;28;20041;-81
2021/01/02 00:05:14;;;;;;;29.27;13.55;;;1.00;99.90;;;;;;5086203;28;20125;-81
2021/01/02 00:07:56;;;;;;;30.15;12.80;;;1.00;99.90;;;;;;5086656;28;20553;-78
2021/01/02 00:10:27;;;;;;;25.85;13.10;;;1.00;99.80;;;;;;5087980;28;20051;-80
2021/01/02 00:13:13;;;;;;;26.30;11.60;;;0.90;99.90;;;;;;5087735;28;20064;-80
2021/01/02 00:16:09;;;;;;;22.55;11.63;;;0.90;99.90;;;;;;5087821;28;20103;-78
2021/01/02 00:19:19;;;;;;;28.98;12.63;;;0.90;99.90;;;;;;5086177;28;20074;-80
2021/01/02 00:22:00;;;;;;;35.85;15.68;;;0.90;99.90;;;;;;5058409;28;20033;-81
2021/01/02 00:24:36;;;;;;;30.70;14.85;;;0.90;99.90;;;;;;5087761;28;20476;-81
2021/01/02 00:27:08;;;;;;;35.83;14.68;;;0.90;99.90;;;;;;5087464;28;20024;-81
2021/01/02 00:30:03;;;;;;;34.80;15.50;;;0.90;99.90;;;;;;5087498;28;20025;-81
2021/01/02 00:32:49;;;;;;;28.00;12.18;;;0.90;99.90;;;;;;5086225;28;20035;-79
2021/01/02 00:35:17;;;;;;;28.85;13.60;;;0.90;99.90;;;;;;5085925;28;20051;-79
2021/01/02 00:37:50;;;;;;;22.67;11.50;;;0.90;99.90;;;;;;5086521;28;20013;-79
2021/01/02 00:40:18;;;;;;;28.60;13.23;;;0.90;99.90;;;;;;5070193;28;20100;-79
2021/01/02 00:42:46;;;;;;;28.58;13.18;;;0.90;99.90;;;;;;5086149;28;20390;-80
2021/01/02 00:45:18;;;;;;;31.60;11.38;;;0.90;99.90;;;;;;5086065;28;20126;-81
2021/01/02 00:47:44;;;;;;;23.67;10.32;;;0.90;99.90;;;;;;5085866;28;20039;-80
2021/01/02 00:50:14;;;;;;;20.52;10.05;;;0.80;99.90;;;;;;5087296;28;20024;-80
2021/01/02 00:52:43;;;;;;;24.02;10.52;;;0.80;99.90;;;;;;5086124;28;20589;-79
2021/01/02 00:55:35;;;;;;;28.07;10.47;;;0.80;99.90;;;;;;5088329;28;20473;-80
2021/01/02 00:58:05;;;;;;;19.10;9.20;;;0.80;99.90;;;;;;5090545;28;20032;-79
2021/01/02 01:00:36;;;;;;;29.15;9.50;;;0.80;99.90;;;;;;5090806;28;20028;-78
2021/01/02 01:03:06;;;;;;;18.85;8.43;;;0.80;99.90;;;;;;5091057;28;20398;-81
2021/01/02 01:05:35;;;;;;;21.30;8.05;;;0.80;99.90;;;;;;5091159;28;20039;-78
2021/01/02 01:08:02;;;;;;;25.60;10.10;;;0.70;99.90;;;;;;5089307;28;20118;-80
2021/01/02 01:10:31;;;;;;;19.10;9.15;;;0.70;99.90;;;;;;5089389;28;20032;-82
2021/01/02 01:12:58;;;;;;;23.60;8.13;;;0.70;99.90;;;;;;5090592;28;20563;-79
2021/01/02 01:15:24;;;;;;;29.55;10.13;;;0.70;99.90;;;;;;5089197;28;20036;-81
2021/01/02 01:18:11;;;;;;;23.08;9.05;;;0.70;99.90;;;;;;5072596;28;20021;-79
2021/01/02 01:20:53;;;;;;;26.85;8.18;;;0.70;99.90;;;;;;5089329;28;20069;-81
2021/01/02 01:23:26;;;;;;;25.25;8.30;;;0.70;99.90;;;;;;5089046;28;20546;-81
2021/01/02 01:26:10;;;;;;;21.15;7.85;;;0.70;99.90;;;;;;5089266;28;20032;-80
2021/01/02 01:28:38;;;;;;;30.95;12.52;;;0.70;99.90;;;;;;5090287;28;20054;-81
2021/01/02 01:31:05;;;;;;;29.80;14.07;;;0.70;99.90;;;;;;5071863;28;20024;-78
2021/01/02 01:33:31;;;;;;;37.67;15.02;;;0.70;99.90;;;;;;5088733;28;20474;-80
2021/01/02 01:36:02;;;;;;;35.65;15.77;;;0.70;99.90;;;;;;5089810;28;20096;-79
2021/01/02 01:38:30;;;;;;;38.03;16.23;;;0.70;99.90;;;;;;5090048;28;20393;-79
2021/01/02 01:40:58;;;;;;;38.17;16.15;;;0.70;99.90;;;;;;5088737;28;20085;-82
2021/01/02 01:43:50;;;;;;;33.75;16.40;;;0.70;99.90;;;;;;5088673;28;20028;-81
2021/01/02 01:46:17;;;;;;;32.15;13.40;;;0.70;99.90;;;;;;5088498;28;20028;-79
2021/01/02 01:49:09;;;;;;;32.35;12.38;;;0.70;99.90;;;;;;5089912;28;20470;-79
2021/01/02 01:51:43;;;;;;;29.33;11.00;;;0.70;99.90;;;;;;5083022;28;20517;-80
2021/01/02 01:54:36;;;;;;;19.50;7.20;;;0.70;99.90;;;;;;5089903;28;20036;-80
2021/01/02 01:57:04;;;;;;;21.67;6.38;;;0.70;99.90;;;;;;5089812;28;20055;-80
2021/01/02 01:59:56;;;;;;;19.08;6.80;;;0.70;99.90;;;;;;5089575;28;20036;-78
2021/01/02 02:02:47;;;;;;;13.13;5.53;;;0.70;99.90;;;;;;5073404;28;20081;-81
2021/01/02 02:05:24;;;;;;;14.32;6.70;;;0.70;99.90;;;;;;5088137;28;20024;-79
2021/01/02 02:08:02;;;;;;;19.58;6.95;;;0.70;99.90;;;;;;5088630;28;20024;-80
2021/01/02 02:10:35;;;;;;;15.87;4.87;;;0.70;99.90;;;;;;5089845;28;20024;-80
2021/01/02 02:13:13;;;;;;;21.13;6.07;;;0.80;99.90;;;;;;5089358;28;20266;-82
2021/01/02 02:15:46;;;;;;;15.57;5.55;;;0.70;99.90;;;;;;5089403;28;20428;-81
2021/01/02 02:18:18;;;;;;;21.13;6.85;;;0.70;99.90;;;;;;5089535;28;20469;-79
2021/01/02 02:20:47;;;;;;;22.52;6.45;;;0.70;99.90;;;;;;5087932;28;20050;-80
2021/01/02 02:23:14;;;;;;;25.75;7.93;;;0.80;99.90;;;;;;5087905;28;20423;-79
2021/01/02 02:25:59;;;;;;;20.35;6.38;;;0.80;99.90;;;;;;5087917;28;20016;-80
2021/01/02 02:29:00;;;;;;;22.25;8.18;;;0.80;99.90;;;;;;5087992;28;20404;-80
2021/01/02 02:31:25;;;;;;;16.90;7.57;;;0.80;99.90;;;;;;5089286;28;20016;-80
2021/01/02 02:34:00;;;;;;;19.70;8.20;;;0.70;99.90;;;;;;5070901;28;20483;-80
2021/01/02 02:36:28;;;;;;;23.10;8.48;;;0.70;99.90;;;;;;5089269;28;20027;-78
2021/01/02 02:38:54;;;;;;;20.85;9.43;;;0.70;99.90;;;;;;5089116;28;20438;-81
2021/01/02 02:41:23;;;;;;;22.38;8.82;;;0.60;99.90;;;;;;5088286;28;20063;-79
2021/01/02 02:43:52;;;;;;;;;;;0.60;99.90;;;;;;5090636;28;20049;-80
2021/01/02 02:46:21;;;;;;;18.27;7.90;;;0.60;99.90;;;;;;5088645;28;19940;-80
2021/01/02 02:48:48;;;;;;;20.63;8.48;;;0.60;99.90;;;;;;5071378;28;20043;-80
2021/01/02 02:51:20;;;;;;;17.05;7.78;;;0.60;99.90;;;;;;5087862;28;20028;-79
2021/01/02 02:53:49;;;;;;;21.48;8.52;;;0.50;99.90;;;;;;5088593;28;20028;-81
2021/01/02 02:56:15;;;;;;;23.17;8.85;;;0.50;99.90;;;;;;5087922;28;20031;-80
2021/01/02 02:58:40;;;;;;;23.83;8.00;;;0.50;99.90;;;;;;5070938;28;20024;-80
2021/01/02 03:01:06;;;;;;;17.65;8.30;;;0.50;99.90;;;;;;5087500;28;20024;-79
2021/01/02 03:03:32;;;;;;;24.67;8.60;;;0.50;99.90;;;;;;5087335;28;20040;-79
2021/01/02 03:05:59;;;;;;;19.02;8.02;;;0.50;99.90;;;;;;5070441;28;20132;-81
2021/01/02 03:08:26;;;;;;;18.77;7.47;;;0.50;99.90;;;;;;5088625;28;20482;-82
2021/01/02 03:10:53;;;;;;;17.67;7.13;;;0.50;99.90;;;;;;5087728;28;20128;-81
2021/01/02 03:13:19;;;;;;;19.42;7.38;;;0.50;99.90;;;;;;5087498;28;20036;-84
2021/01/02 03:15:44;;;;;;;19.15;7.05;;;0.50;99.90;;;;;;5070468;28;20490;-79
2021/01/02 03:18:10;;;;;;;12.88;5.70;;;0.60;99.90;;;;;;5070329;28;20039;-80
2021/01/02 03:20:37;;;;;;;17.17;6.95;;;0.60;99.90;;;;;;5087051;28;20113;-81
2021/01/02 03:23:03;;;;;;;12.27;5.70;;;0.60;99.90;;;;;;5087585;28;20478;-81
2021/01/02 03:25:29;;;;;;;17.75;5.80;;;0.60;99.90;;;;;;5087224;28;20043;-80
2021/01/02 03:27:56;;;;;;;21.02;8.30;;;0.60;99.90;;;;;;5070134;28;20024;-81
2021/01/02 03:30:22;;;;;;;15.02;5.35;;;0.60;99.90;;;;;;5069801;28;20054;-82
2021/01/02 03:32:48;;;;;;;16.48;5.53;;;0.60;99.90;;;;;;5086760;28;20470;-79
2021/01/02 03:35:16;;;;;;;16.98;6.15;;;0.70;99.90;;;;;;5087684;28;20068;-79
2021/01/02 03:37:44;;;;;;;16.98;5.75;;;0.60;99.90;;;;;;5087921;28;20105;-79
2021/01/02 03:40:12;;;;;;;24.40;5.70;;;0.70;99.90;;;;;;5088109;28;20030;-81
2021/01/02 03:42:44;;;;;;;17.48;5.78;;;0.70;99.90;;;;;;5086651;28;20024;-79
2021/01/02 03:45:12;;;;;;;12.38;4.30;;;0.70;99.90;;;;;;5087950;28;20401;-83
2021/01/02 03:47:42;;;;;;;14.07;4.78;;;0.80;99.90;;;;;;5086595;28;20055;-79
2021/01/02 03:50:08;;;;;;;12.60;4.60;;;0.80;99.90;;;;;;5088021;28;20042;-79
2021/01/02 03:52:38;;;;;;;12.50;4.25;;;0.90;99.90;;;;;;5069601;28;20024;-79
2021/01/02 03:55:06;;;;;;;11.25;4.18;;;0.90;99.90;;;;;;5086554;28;20363;-78
2021/01/02 03:57:32;;;;;;;16.05;5.35;;;1.00;99.90;;;;;;5086643;28;20032;-81
2021/01/02 03:59:58;;;;;;;12.63;4.82;;;1.20;99.90;;;;;;5088044;28;20107;-81
2021/01/02 04:02:27;;;;;;;10.93;5.03;;;1.30;99.90;;;;;;5087753;28;20024;-81
2021/01/02 04:04:53;;;;;;;17.52;5.32;;;1.30;99.90;;;;;;5087570;28;20540;-79
2021/01/02 04:07:19;;;;;;;14.90;4.25;;;1.40;99.90;;;;;;5086521;28;20036;-81
2021/01/02 04:09:45;;;;;;;11.98;5.35;;;1.50;99.90;;;;;;5086548;28;20328;-81
2021/01/02 04:12:11;;;;;;;9.20;4.10;;;1.50;99.90;;;;;;5086496;28;20436;-80
2021/01/02 04:14:36;;;;;;;11.32;4.53;;;1.50;99.90;;;;;;5086234;28;20056;-82
2021/01/02 04:17:02;;;;;;;13.60;4.78;;;1.60;99.90;;;;;;5086235;28;20027;-82
2021/01/02 04:19:28;;;;;;;14.45;4.53;;;1.50;99.90;;;;;;5086503;28;20478;-82
2021/01/02 04:21:54;;;;;;;16.08;5.10;;;1.50;99.90;;;;;;5069290;28;20029;-80
2021/01/02 04:24:19;;;;;;;11.45;4.50;;;1.50;99.90;;;;;;5069619;28;20028;-82
2021/01/02 04:26:45;;;;;;;13.25;4.60;;;1.50;99.90;;;;;;5069374;28;20039;-79
2021/01/02 04:29:11;;;;;;;10.82;4.30;;;1.40;99.90;;;;;;5086577;28;20051;-80
2021/01/02 04:31:39;;;;;;;7.45;3.92;;;1.40;99.90;;;;;;5072705;28;20032;-81
2021/01/02 04:34:06;;;;;;;12.70;5.15;;;1.40;99.90;;;;;;5089853;28;20415;-79
2021/01/02 04:36:33;;;;;;;14.27;4.97;;;1.40;99.90;;;;;;5089810;28;20487;-82
2021/01/02 04:38:59;;;;;;;12.57;5.10;;;1.40;99.90;;;;;;5089757;28;20485;-79
2021/01/02 04:41:25;;;;;;;13.00;4.07;;;1.40;99.90;;;;;;5090962;28;20043;-82
2021/01/02 04:43:52;;;;;;;12.75;4.63;;;1.40;99.90;;;;;;5091117;28;20028;-79
2021/01/02 04:46:20;;;;;;;13.43;4.60;;;1.40;99.90;;;;;;5089896;28;20036;-83
2021/01/02 04:48:48;;;;;;;12.52;4.70;;;1.40;99.90;;;;;;5090940;28;20028;-81
2021/01/02 04:51:15;;;;;;;14.75;4.53;;;1.50;99.90;;;;;;5089628;28;20423;-79
2021/01/02 04:53:41;;;;;;;13.95;4.50;;;1.50;99.90;;;;;;5089408;28;20119;-80
2021/01/02 04:56:08;;;;;;;15.38;4.90;;;1.50;99.90;;;;;;5089548;28;20085;-81
2021/01/02 04:58:42;;;;;;;10.65;4.40;;;1.50;99.90;;;;;;5091013;28;20482;-83
2021/01/02 05:01:12;;;;;;;10.75;4.20;;;1.60;99.90;;;;;;5089320;28;20028;-81
2021/01/02 05:03:46;;;;;;;10.23;4.32;;;1.60;99.90;;;;;;5090749;28;20024;-80
2021/01/02 05:06:19;;;;;;;14.30;4.65;;;1.60;99.90;;;;;;5089364;28;20036;-82
2021/01/02 05:08:45;;;;;;;11.57;4.88;;;1.70;99.90;;;;;;5090556;28;20024;-81
2021/01/02 05:11:10;;;;;;;12.13;3.85;;;1.70;99.90;;;;;;5072448;28;20043;-82
2021/01/02 05:13:37;;;;;;;12.20;4.68;;;1.70;99.90;;;;;;5090587;28;20032;-81
2021/01/02 05:19:03;;;;;;;15.45;4.18;;;1.80;99.90;;;;;;5082386;28;20028;-82
2021/01/02 05:21:29;;;;;;;13.73;4.07;;;1.90;99.90;;;;;;5090316;28;20111;-82
2021/01/02 05:24:15;;;;;;;12.10;4.13;;;1.90;99.90;;;;;;5090298;28;20024;-81
2021/01/02 05:26:46;;;;;;;13.18;4.70;;;1.90;99.90;;;;;;5088973;28;20024;-80
2021/01/02 05:29:24;;;;;;;15.85;4.35;;;1.90;99.90;;;;;;5088886;28;20036;-80
2021/01/02 05:31:56;;;;;;;11.52;4.13;;;1.90;99.90;;;;;;5071972;28;20039;-79
2021/01/02 05:34:27;;;;;;;10.75;4.35;;;1.90;99.90;;;;;;5072170;28;20467;-83
2021/01/02 05:36:59;;;;;;;12.23;4.05;;;1.90;99.90;;;;;;5088740;28;20052;-79
2021/01/02 05:39:41;;;;;;;13.98;3.95;;;1.90;99.90;;;;;;5088774;28;20024;-81
2021/01/02 05:42:08;;;;;;;13.55;3.30;;;2.00;99.90;;;;;;5087514;28;20024;-80
2021/01/02 05:44:37;;;;;;;11.05;3.55;;;2.00;99.90;;;;;;5088861;28;20028;-81
2021/01/02 05:47:04;;;;;;;12.70;4.13;;;2.00;99.90;;;;;;5088658;28;20097;-79
2021/01/02 05:49:41;;;;;;;11.00;3.92;;;2.00;99.90;;;;;;5089751;28;20064;-79
2021/01/02 05:52:11;;;;;;;8.02;4.30;;;2.00;99.90;;;;;;5089564;28;20479;-82
2021/01/02 05:54:46;;;;;;;14.43;4.50;;;2.10;99.90;;;;;;5089726;28;20048;-82
2021/01/02 05:57:12;;;;;;;11.07;4.18;;;2.10;99.90;;;;;;5089742;28;20026;-81
2021/01/02 05:59:41;;;;;;;11.95;4.03;;;2.10;99.90;;;;;;5088426;28;20110;-83
2021/01/02 06:02:37;;;;;;;11.80;4.82;;;2.10;99.90;;;;;;5089474;28;20020;-80
2021/01/02 06:05:08;;;;;;;15.45;4.25;;;2.10;99.90;;;;;;5088207;28;20032;-81
2021/01/02 06:07:35;;;;;;;13.57;4.55;;;2.10;99.90;;;;;;5088153;28;20073;-82
2021/01/02 06:10:11;;;;;;;10.85;4.07;;;2.10;99.90;;;;;;5088190;28;20032;-83
2021/01/02 06:12:39;;;;;;;13.05;5.13;;;2.20;99.90;;;;;;5088219;28;20425;-78
2021/01/02 06:15:15;;;;;;;11.50;4.47;;;2.20;99.90;;;;;;5087915;28;20028;-80
2021/01/02 06:17:43;;;;;;;12.15;4.43;;;2.20;99.90;;;;;;5087996;28;20275;-84
2021/01/02 06:20:11;;;;;;;11.45;4.60;;;2.20;99.90;;;;;;5089334;28;20020;-80
2021/01/02 06:22:40;;;;;;;10.43;4.20;;;2.20;99.90;;;;;;5089226;28;20463;-81
2021/01/02 06:25:08;;;;;;;11.23;4.67;;;2.20;99.90;;;;;;5087758;28;20032;-82
2021/01/02 06:27:37;;;;;;;8.95;3.97;;;2.20;99.90;;;;;;5088924;28;20825;-79
2021/01/02 06:30:03;;;;;;;11.27;4.60;;;2.30;99.90;;;;;;5087775;28;20027;-80
2021/01/02 06:32:29;;;;;;;13.98;5.35;;;2.30;99.90;;;;;;5088973;28;20039;-80
2021/01/02 06:35:10;;;;;;;12.80;5.20;;;2.30;99.90;;;;;;5088846;28;20044;-78
2021/01/02 06:37:48;;;;;;;12.10;4.40;;;2.30;99.90;;;;;;5088649;28;20024;-81
2021/01/02 06:40:29;;;;;;;13.57;4.88;;;2.30;99.90;;;;;;5088597;28;20023;-83
2021/01/02 06:43:06;;;;;;;14.95;5.95;;;2.30;99.90;;;;;;5088817;28;20367;-81
2021/01/02 06:45:38;;;;;;;10.82;4.65;;;2.30;99.90;;;;;;5087776;28;20085;-82
2021/01/02 06:48:16;;;;;;;11.07;4.35;;;2.30;99.90;;;;;;5087519;28;20028;-80
2021/01/02 06:50:55;;;;;;;14.52;4.40;;;2.40;99.90;;;;;;5088508;28;20046;-82
2021/01/02 06:53:32;;;;;;;;;;;2.40;99.90;;;;;;5087587;28;20024;-80
2021/01/02 06:56:09;;;;;;;10.10;5.07;;;2.40;99.90;;;;;;5087230;28;19904;-83
2021/01/02 06:58:52;;;;;;;12.00;3.78;;;2.50;99.90;;;;;;5070769;28;20028;-82
2021/01/02 07:01:18;;;;;;;13.85;4.78;;;2.40;99.90;;;;;;5070361;28;20111;-82
2021/01/02 07:03:47;;;;;;;10.07;4.50;;;2.50;99.90;;;;;;5087183;28;20174;-79
2021/01/02 07:06:22;;;;;;;7.65;2.85;;;2.50;99.90;;;;;;5088260;28;20089;-81
2021/01/02 07:09:00;;;;;;;14.85;4.95;;;2.50;99.90;;;;;;5088297;28;20020;-84
2021/01/02 07:11:30;;;;;;;8.70;4.75;;;2.50;99.90;;;;;;5087077;28;20028;-79
2021/01/02 07:14:08;;;;;;;14.00;4.95;;;2.50;99.90;;;;;;5088420;28;20048;-83
2021/01/02 07:16:45;;;;;;;13.65;4.85;;;2.50;99.90;;;;;;5087232;28;20020;-80
2021/01/02 07:19:33;;;;;;;13.75;5.00;;;2.60;99.90;;;;;;5087134;28;20180;-81
2021/01/02 07:22:07;;;;;;;12.93;4.22;;;2.60;99.90;;;;;;5086908;28;20052;-79
2021/01/02 07:24:40;;;;;;;13.40;5.13;;;2.60;99.90;;;;;;5088242;28;20032;-80
2021/01/02 07:27:14;;;;;;;10.55;4.38;;;2.60;99.90;;;;;;5088351;28;20062;-80
2021/01/02 07:29:49;;;;;;;17.85;5.00;;;2.70;99.90;;;;;;5087165;28;20484;-79
2021/01/02 07:32:23;;;;;;;15.23;4.38;;;2.70;99.90;;;;;;5087936;28;20493;-81
2021/01/02 07:34:53;;;;;;;11.43;4.97;;;2.80;99.90;;;;;;5086468;28;20081;-79
2021/01/02 07:37:20;;;;;;;;;;;2.80;99.90;;;;;;5086888;28;20043;-80
2021/01/02 07:40:13;;;;;;;7.78;4.10;;;2.80;99.90;;;;;;5086663;28;19957;-81
2021/01/02 07:42:47;;;;;;;10.80;4.40;;;2.90;99.90;;;;;;5086107;28;20089;-81
2021/01/02 07:45:15;;;;;;;14.10;5.05;;;2.90;99.90;;;;;;5087875;28;20024;-78
2021/01/02 07:47:58;;;;;;;12.23;4.82;;;2.90;99.90;;;;;;5087814;28;20426;-80
2021/01/02 07:50:26;;;;;;;10.60;4.40;;;2.90;99.90;;;;;;5086371;28;20058;-80
2021/01/02 07:52:54;;;;;;;8.77;4.18;;;2.90;99.90;;;;;;5087914;28;20028;-80
2021/01/02 07:55:33;;;;;;;10.23;4.45;;;3.00;99.90;;;;;;5087965;28;20374;-80
2021/01/02 07:58:00;;;;;;;11.73;5.00;;;3.00;99.90;;;;;;5086644;28;20055;-79
2021/01/02 08:00:26;;;;;;;7.63;4.13;;;3.00;99.90;;;;;;5086440;28;20391;-82
2021/01/02 08:02:52;;;;;;;14.10;4.60;;;3.00;99.90;;;;;;5086327;28;20491;-80
2021/01/02 08:05:20;;;;;;;15.02;5.35;;;3.00;99.90;;;;;;5071002;28;20123;-79
2021/01/02 08:07:58;;;;;;;13.95;4.80;;;3.00;99.90;;;;;;5090328;28;20479;-79
2021/01/02 08:10:24;;;;;;;10.13;4.00;;;3.00;99.90;;;;;;5091740;28;20036;-79
2021/01/02 08:12:51;;;;;;;8.43;3.85;;;3.10;99.90;;;;;;5091939;28;20043;-80
2021/01/02 08:15:27;;;;;;;8.77;4.50;;;3.10;99.90;;;;;;5091628;28;20032;-80
2021/01/02 08:17:53;;;;;;;14.25;5.25;;;3.10;99.90;;;;;;5091569;28;20077;-79
2021/01/02 08:20:19;;;;;;;12.32;4.72;;;3.20;99.90;;;;;;5091354;28;20436;-81
2021/01/02 08:22:44;;;;;;;15.02;5.85;;;3.20;99.90;;;;;;5073462;28;20085;-78
2021/01/02 08:25:17;;;;;;;9.90;4.45;;;3.20;99.90;;;;;;5073394;28;20482;-80
2021/01/02 08:27:44;;;;;;;13.40;3.67;;;3.20;99.90;;;;;;5091435;28;20526;-79
2021/01/02 08:30:12;;;;;;;9.95;4.00;;;3.20;99.90;;;;;;5072952;28;20036;-78
2021/01/02 08:32:50;;;;;;;8.15;3.55;;;3.20;99.90;;;;;;5089621;28;20020;-79
2021/01/02 08:35:20;;;;;;;9.68;3.83;;;3.30;99.90;;;;;;5091080;28;20055;-77
2021/01/02 08:37:47;;;;;;;16.23;4.70;;;3.30;99.90;;;;;;5090239;28;20024;-81
2021/01/02 08:40:15;;;;;;;17.00;7.55;;;3.40;99.90;;;;;;5089943;28;20020;-79
2021/01/02 08:42:43;;;;;;;16.05;5.35;;;3.40;99.90;;;;;;5073440;28;20032;-82
2021/01/02 08:45:11;;;;;;;10.52;5.07;;;3.40;99.90;;;;;;5090852;28;20066;-78
2021/01/02 08:47:38;;;;;;;9.40;4.30;;;3.40;99.90;;;;;;5090923;28;20036;-79
2021/01/02 08:50:12;;;;;;;6.35;3.15;;;3.50;99.90;;;;;;5090837;28;20085;-78
2021/01/02 08:52:38;;;;;;;12.32;2.72;;;3.50;99.90;;;;;;5072959;28;20123;-78
2021/01/02 08:55:17;;;;;;;7.32;2.90;;;3.50;99.90;;;;;;5072435;28;20036;-80
2021/01/02 08:57:54;;;;;;;13.10;3.20;;;3.40;99.90;;;;;;5089619;28;20104;-80
2021/01/02 09:00:29;;;;;;;10.52;2.42;;;3.40;99.90;;;;;;5090884;28;20371;-80
2021/01/02 09:02:55;;;;;;;12.75;2.88;;;3.40;99.90;;;;;;5090809;28;20037;-80
2021/01/02 09:05:29;;;;;;;7.07;2.55;;;3.40;99.90;;;;;;5089156;28;20386;-78
2021/01/02 09:08:05;;;;;;;10.90;3.55;;;3.40;99.90;;;;;;5089406;28;20123;-80
2021/01/02 09:10:42;;;;;;;12.55;3.60;;;3.40;99.90;;;;;;5090576;28;20020;-79
2021/01/02 09:13:20;;;;;;;7.05;2.85;;;3.40;99.90;;;;;;5091004;28;20024;-78
2021/01/02 09:15:58;;;;;;;7.70;2.30;;;3.50;99.90;;;;;;5088792;28;20067;-79
2021/01/02 09:18:23;;;;;;;9.45;2.80;;;3.60;99.90;;;;;;5089168;28;20504;-80
2021/01/02 09:20:49;;;;;;;17.20;7.75;;;3.60;99.90;;;;;;5090132;28;20035;-79
2021/01/02 09:23:28;;;;;;;20.10;8.10;;;3.70;99.90;;;;;;5090442;28;20096;-79
2021/01/02 09:25:54;;;;;;;13.07;5.10;;;3.70;99.90;;;;;;5090534;28;20024;-80
2021/01/02 09:28:20;;;;;;;8.10;2.90;;;3.70;99.90;;;;;;5089043;28;20078;-79
2021/01/02 09:30:48;;;;;;;7.93;2.45;;;3.80;99.90;;;;;;5071747;28;20372;-78
2021/01/02 09:33:15;;;;;;;5.00;2.13;;;3.80;99.90;;;;;;5089945;28;20028;-78
2021/01/02 09:35:42;;;;;;;5.45;2.35;;;3.80;99.90;;;;;;5090044;28;20089;-79
2021/01/02 09:38:08;;;;;;;9.80;2.75;;;3.90;99.90;;;;;;5088931;28;20024;-78
2021/01/02 09:40:40;;;;;;;8.57;2.70;;;3.90;99.90;;;;;;5088547;28;20024;-78
2021/01/02 09:43:08;;;;;;;8.00;2.40;;;3.90;99.90;;;;;;5090093;28;20036;-79
2021/01/02 09:45:34;;;;;;;7.18;1.83;;;3.90;99.90;;;;;;5088900;28;20020;-79
2021/01/02 09:48:00;;;;;;;7.93;2.83;;;3.90;99.90;;;;;;5089768;28;20168;-79
2021/01/02 09:50:26;;;;;;;6.95;2.13;;;3.90;99.90;;;;;;5089509;28;20056;-80
2021/01/02 09:52:52;;;;;;;7.03;3.08;;;3.90;99.90;;;;;;5088071;28;20028;-81
2021/01/02 09:55:18;;;;;;;9.90;3.03;;;4.00;99.90;;;;;;5088008;28;20024;-79
2021/01/02 09:57:50;;;;;;;10.05;2.88;;;4.00;99.90;;;;;;5089689;28;20020;-80
2021/01/02 10:00:18;;;;;;;10.27;2.58;;;4.00;99.90;;;;;;5070925;28;20056;-77
2021/01/02 10:02:44;;;;;;;8.07;2.60;;;4.00;99.90;;;;;;5089502;28;20089;-78
2021/01/02 10:05:14;;;;;;;10.10;2.25;;;4.00;99.90;;;;;;5089549;28;20047;-79
2021/01/02 10:07:39;;;;;;;7.95;1.88;;;4.00;99.90;;;;;;5087852;28;20050;-80
2021/01/02 10:10:06;;;;;;;8.27;2.05;;;4.00;99.90;;;;;;5088123;28;20028;-81
2021/01/02 10:12:32;;;;;;;11.45;3.30;;;3.90;99.90;;;;;;5088942;28;20131;-79
2021/01/02 10:14:58;;;;;;;11.77;3.25;;;3.90;99.90;;;;;;5088980;28;20119;-78
2021/01/02 10:17:27;;;;;;;9.45;4.30;;;3.90;99.90;;;;;;5087876;28;20036;-80
2021/01/02 10:19:53;;;;;;;12.35;3.80;;;3.90;99.90;;;;;;5087728;28;20028;-78
2021/01/02 10:22:20;;;;;;;11.27;4.43;;;4.00;99.90;;;;;;5087366;28;20446;-78
2021/01/02 10:24:47;;;;;;;9.90;4.13;;;4.00;99.90;;;;;;5089082;28;20059;-79
2021/01/02 10:27:14;;;;;;;8.15;4.07;;;4.00;99.90;;;;;;5087136;28;20024;-79
2021/01/02 10:29:43;;;;;;;8.52;4.35;;;4.10;99.90;;;;;;5088739;28;20124;-80
2021/01/02 10:32:09;;;;;;;15.80;4.88;;;4.20;99.90;;;;;;5087449;28;20387;-80
2021/01/02 10:34:34;;;;;;;14.75;5.22;;;4.20;99.90;;;;;;5086930;28;20081;-80
2021/01/02 10:37:00;;;;;;;10.45;4.60;;;4.30;99.90;;;;;;5087525;28;20043;-80
2021/01/02 10:39:26;;;;;;;7.20;3.28;;;4.30;99.90;;;;;;5088519;28;20028;-78
2021/01/02 10:41:52;;;;;;;8.02;3.15;;;4.30;99.90;;;;;;5087260;28;20107;-79
2021/01/02 10:44:19;;;;;;;7.25;3.05;;;4.30;99.90;;;;;;5070573;28;20043;-80
2021/01/02 10:46:51;;;;;;;8.30;4.13;;;4.30;99.90;;;;;;5088709;28;20028;-79
2021/01/02 10:49:20;;;;;;;13.63;6.90;;;4.40;99.90;;;;;;5088548;28;20031;-79
2021/01/02 10:51:46;;;;;;;14.02;6.43;;;4.40;99.90;;;;;;5087131;28;20055;-80
2021/01/02 10:54:17;;;;;;;18.73;9.05;;;4.50;99.90;;;;;;5087142;28;20032;-78
2021/01/02 10:56:48;;;;;;;23.73;8.25;;;4.60;99.90;;;;;;5087165;28;20107;-80
2021/01/02 10:59:15;;;;;;;21.23;6.63;;;4.60;99.90;;;;;;5088553;28;20024;-79
2021/01/02 11:01:52;;;;;;;14.20;5.68;;;4.70;99.90;;;;;;5088282;28;20098;-78
2021/01/02 11:04:21;;;;;;;15.10;5.85;;;4.80;99.90;;;;;;5086666;28;20332;-82
2021/01/02 11:06:50;;;;;;;11.27;4.53;;;4.90;99.90;;;;;;5087721;28;20109;-80
2021/01/02 11:09:17;;;;;;;11.55;5.80;;;5.00;99.90;;;;;;5087868;28;20060;-79
2021/01/02 11:11:43;;;;;;;11.98;4.45;;;5.10;99.90;;;;;;5087304;28;20037;-78
2021/01/02 11:14:10;;;;;;;43.58;13.82;;;5.10;99.90;;;;;;5086627;28;20032;-78
2021/01/02 11:16:39;;;;;;;107.57;23.65;;;5.20;99.90;;;;;;5087918;28;20032;-82
2021/01/02 11:19:26;;;;;;;18.25;5.97;;;5.20;99.90;;;;;;5087800;28;20044;-81
2021/01/02 11:21:57;;;;;;;7.72;3.67;;;5.30;99.90;;;;;;5086620;28;20435;-79
2021/01/02 11:24:26;;;;;;;15.57;4.97;;;5.30;99.90;;;;;;5088179;28;20099;-81
2021/01/02 11:26:55;;;;;;;11.77;4.28;;;5.30;99.90;;;;;;5087750;28;20106;-79
2021/01/02 11:29:22;;;;;;;23.55;11.25;;;5.30;99.90;;;;;;5086371;28;20033;-80
2021/01/02 11:31:48;;;;;;;42.90;9.32;;;5.30;99.90;;;;;;5086407;28;20478;-79
2021/01/02 11:34:15;;;;;;;17.33;5.75;;;5.30;99.90;;;;;;5087610;28;20437;-79
2021/01/02 11:36:41;;;;;;;12.35;4.03;;;5.30;99.90;;;;;;5086227;28;20352;-80
2021/01/02 11:39:08;;;;;;;7.82;4.03;;;5.30;99.90;;;;;;5087534;28;20032;-78
2021/01/02 11:41:36;;;;;;;7.88;3.28;;;5.30;99.90;;;;;;5069199;28;20032;-78
2021/01/02 11:44:08;;;;;;;12.45;3.00;;;5.30;99.90;;;;;;5087164;28;20386;-79
2021/01/02 11:46:45;;;;;;;8.68;4.07;;;5.40;99.90;;;;;;5085750;28;20035;-78
2021/01/02 11:49:15;;;;;;;9.45;3.72;;;5.50;99.90;;;;;;5087229;28;20494;-77
2021/01/02 11:51:41;;;;;;;12.35;2.75;;;5.60;99.90;;;;;;5087171;28;20093;-80
2021/01/02 11:54:07;;;;;;;11.05;3.08;;;5.70;99.90;;;;;;5069687;28;20123;-80
2021/01/02 11:56:34;;;;;;;8.02;3.10;;;5.90;99.90;;;;;;5069250;28;20203;-78
2021/01/02 11:59:05;;;;;;;4.10;2.10;;;6.00;99.90;;;;;;5069130;28;20030;-80
2021/01/02 12:01:42;;;;;;;6.63;2.17;;;6.00;99.90;;;;;;5069656;28;20387;-81
2021/01/02 12:04:11;;;;;;;8.05;2.45;;;6.10;99.90;;;;;;5085688;28;20054;-81
2021/01/02 12:06:37;;;;;;;13.27;2.88;;;6.10;99.90;;;;;;5086634;28;20028;-79
2021/01/02 12:09:06;;;;;;;7.13;2.83;;;6.10;99.90;;;;;;5085170;28;20028;-78
2021/01/02 12:11:34;;;;;;;13.68;5.40;;;6.10;99.80;;;;;;5086608;28;20389;-78
2021/01/02 12:14:00;;;;;;;22.77;8.50;;;6.10;99.80;;;;;;5086711;28;20027;-79
2021/01/02 12:16:39;;;;;;;20.92;9.23;;;6.10;99.70;;;;;;5068298;28;20028;-79
2021/01/02 12:19:06;;;;;;;11.77;6.88;;;6.10;99.70;;;;;;5086760;28;20078;-81
2021/01/02 12:21:32;;;;;;;17.67;8.68;;;6.00;99.80;;;;;;5085033;28;20028;-79
2021/01/02 12:23:58;;;;;;;10.38;5.88;;;6.10;99.90;;;;;;5085628;28;20036;-80
2021/01/02 12:26:24;;;;;;;13.32;4.30;;;6.00;99.80;;;;;;5087136;28;20024;-77
2021/01/02 12:28:51;;;;;;;9.75;4.40;;;6.10;99.90;;;;;;5086743;28;20107;-80
2021/01/02 12:31:19;;;;;;;15.38;6.25;;;6.10;99.90;;;;;;5086558;28;20028;-80
2021/01/02 12:33:45;;;;;;;11.20;5.75;;;6.10;99.90;;;;;;5087056;28;20028;-79
2021/01/02 12:36:13;;;;;;;14.55;5.38;;;6.10;99.90;;;;;;5085463;28;20465;-77
2021/01/02 12:38:40;;;;;;;16.83;8.27;;;6.20;99.90;;;;;;5085290;28;20363;-78
2021/01/02 12:41:11;;;;;;;11.80;4.85;;;6.20;99.90;;;;;;5085678;28;20028;-80
2021/01/02 12:43:39;;;;;;;13.18;4.72;;;6.30;99.90;;;;;;5085219;28;20050;-82
2021/01/02 12:46:05;;;;;;;10.13;4.68;;;6.30;99.90;;;;;;5068197;28;20028;-79
2021/01/02 12:48:31;;;;;;;11.35;4.78;;;6.30;99.90;;;;;;5084623;28;20032;-81
2021/01/02 12:50:57;;;;;;;12.38;4.82;;;6.30;99.90;;;;;;5086008;28;20039;-80
2021/01/02 12:53:23;;;;;;;12.35;5.10;;;6.30;99.90;;;;;;5071969;28;20066;-78
2021/01/02 12:55:49;;;;;;;9.98;3.88;;;6.40;99.90;;;;;;5071807;28;20028;-81
2021/01/02 12:58:15;;;;;;;8.93;4.25;;;6.40;99.90;;;;;;5090464;28;20024;-80
2021/01/02 13:00:40;;;;;;;8.52;4.90;;;6.40;99.90;;;;;;5071619;28;20507;-77
2021/01/02 13:03:06;;;;;;;7.50;4.97;;;6.50;99.90;;;;;;5088069;28;20024;-79
2021/01/02 13:05:32;;;;;;;9.50;5.40;;;6.50;99.90;;;;;;5088219;28;20482;-80
2021/01/02 13:07:58;;;;;;;8.68;4.95;;;6.60;99.90;;;;;;5088223;28;20055;-79